Time;durP1;ratioP1;P1;durP2;ratioP2;P2;SDS_P1;SDS_P2;PMS_P1;PMS_P2;Temp;Humidity;BMP_temperature;BMP_pressure;BME280_temperature;BME280_humidity;BME280_pressure;Samples;Min_cycle;Max_cycle;Signal;HPM_P1;HPM_P2
2022/01/09 00:00:16;;;;;;;17.38;12.30;;;4.20;99.90;;;;;;5053260;28;20072;-60
2022/01/09 00:02:42;;;;;;;16.90;11.18;;;4.20;99.90;;;;;;5051862;28;20547;-60
2022/01/09 00:05:09;;;;;;;16.92;12.32;;;4.20;99.90;;;;;;5053108;28;20382;-60
2022/01/09 00:07:35;;;;;;;15.95;11.80;;;4.20;99.90;;;;;;5052996;28;20044;-48
2022/01/09 00:10:00;;;;;;;19.48;13.75;;;4.30;99.90;;;;;;5053289;28;20045;-50
2022/01/09 00:12:26;;;;;;;18.13;12.48;;;4.10;99.90;;;;;;5052886;28;20041;-48
2022/01/09 00:14:53;;;;;;;18.23;11.88;;;4.20;99.90;;;;;;5053375;28;20029;-49
2022/01/09 00:17:19;;;;;;;16.45;11.65;;;4.20;99.90;;;;;;5061260;28;20053;-60
2022/01/09 00:19:45;;;;;;;17.95;12.88;;;4.20;99.90;;;;;;5073629;28;20132;-48
2022/01/09 00:22:11;;;;;;;17.63;12.55;;;4.20;99.90;;;;;;5073588;28;20123;-49
2022/01/09 00:24:37;;;;;;;18.38;12.57;;;4.20;99.90;;;;;;5074522;28;20044;-49
2022/01/09 00:27:03;;;;;;;17.80;12.18;;;4.20;99.90;;;;;;5074169;28;20055;-48
2022/01/09 00:29:29;;;;;;;18.95;12.65;;;4.20;99.90;;;;;;5074037;28;20044;-49
2022/01/09 00:31:55;;;;;;;17.88;12.70;;;4.20;99.90;;;;;;5074204;28;20037;-60
2022/01/09 00:34:21;;;;;;;17.35;12.27;;;4.10;99.90;;;;;;5074152;28;20044;-60
2022/01/09 00:36:47;;;;;;;18.27;13.18;;;4.20;99.90;;;;;;5073916;28;20549;-60
2022/01/09 00:39:12;;;;;;;17.17;11.70;;;4.20;99.90;;;;;;5074273;28;20056;-48
2022/01/09 00:41:38;;;;;;;18.17;11.55;;;4.30;99.90;;;;;;5072838;28;20040;-48
2022/01/09 00:44:04;;;;;;;18.00;12.70;;;4.20;99.90;;;;;;5073779;28;20059;-48
2022/01/09 00:46:33;;;;;;;18.17;12.52;;;4.20;99.90;;;;;;5073882;28;20534;-50
2022/01/09 00:49:02;;;;;;;23.27;14.98;;;4.30;99.90;;;;;;5072791;28;20102;-61
2022/01/09 00:51:28;;;;;;;18.02;11.77;;;4.20;99.90;;;;;;5053647;28;20037;-61
2022/01/09 00:53:53;;;;;;;18.48;12.10;;;4.10;99.90;;;;;;5052490;28;20101;-61
2022/01/09 00:56:19;;;;;;;16.98;11.93;;;4.30;99.90;;;;;;5053673;28;20048;-61
2022/01/09 00:58:44;;;;;;;19.80;12.43;;;4.50;99.90;;;;;;5053630;28;20045;-60
2022/01/09 01:01:10;;;;;;;18.27;13.00;;;4.20;99.90;;;;;;5053522;28;20409;-60
2022/01/09 01:03:36;;;;;;;18.80;13.07;;;4.20;99.90;;;;;;5053619;28;20393;-60
2022/01/09 01:06:01;;;;;;;17.80;11.65;;;4.30;99.90;;;;;;5053427;28;20120;-60
2022/01/09 01:08:27;;;;;;;16.70;11.70;;;4.30;99.90;;;;;;5053604;28;20052;-60
2022/01/09 01:10:53;;;;;;;21.90;13.55;;;4.20;99.90;;;;;;5053357;28;20037;-60
2022/01/09 01:13:18;;;;;;;21.63;13.20;;;4.20;99.90;;;;;;5053179;28;20371;-60
2022/01/09 01:15:44;;;;;;;19.33;12.35;;;4.20;99.90;;;;;;5053169;28;20052;-61
2022/01/09 01:18:10;;;;;;;17.65;12.95;;;4.30;99.90;;;;;;5067819;28;20485;-61
2022/01/09 01:20:36;;;;;;;20.52;13.52;;;4.30;99.90;;;;;;5073092;28;20051;-61
2022/01/09 01:23:02;;;;;;;21.58;13.38;;;4.20;99.90;;;;;;5073075;28;20520;-61
2022/01/09 01:25:28;;;;;;;23.83;13.95;;;4.40;99.90;;;;;;5073021;28;20071;-61
2022/01/09 01:27:54;;;;;;;21.67;13.90;;;4.30;99.90;;;;;;5073012;28;20102;-61
2022/01/09 01:30:20;;;;;;;21.83;14.40;;;4.20;99.90;;;;;;5072740;28;20512;-62
2022/01/09 01:32:46;;;;;;;21.05;13.10;;;4.20;99.90;;;;;;5072919;28;20033;-61
2022/01/09 01:35:12;;;;;;;23.30;14.55;;;4.30;99.90;;;;;;5072825;28;20447;-61
2022/01/09 01:37:41;;;;;;;22.80;13.60;;;4.20;99.90;;;;;;5072996;28;20425;-61
2022/01/09 01:40:09;;;;;;;22.83;13.88;;;4.20;99.90;;;;;;5071626;28;20787;-61
2022/01/09 01:42:35;;;;;;;22.55;13.63;;;4.30;99.90;;;;;;5072737;28;20040;-61
2022/01/09 01:45:01;;;;;;;19.38;12.88;;;4.20;99.90;;;;;;5072567;28;20089;-61
2022/01/09 01:47:27;;;;;;;23.52;14.75;;;4.20;99.90;;;;;;5072699;28;20397;-60
2022/01/09 01:49:53;;;;;;;21.23;14.65;;;4.30;99.90;;;;;;5064001;28;20095;-61
2022/01/09 01:52:28;;;;;;;22.05;14.13;;;4.30;99.90;;;;;;5052792;28;20037;-61
2022/01/09 01:54:54;;;;;;;22.33;14.38;;;4.20;99.90;;;;;;5052698;28;20041;-60
2022/01/09 01:57:20;;;;;;;23.83;14.85;;;4.30;99.90;;;;;;5052655;28;20112;-60
2022/01/09 01:59:46;;;;;;;23.40;14.85;;;4.40;99.90;;;;;;5052543;28;20137;-60
2022/01/09 02:02:11;;;;;;;29.67;15.88;;;4.40;99.90;;;;;;5052800;28;20045;-60
2022/01/09 02:04:37;;;;;;;24.85;14.80;;;4.30;99.90;;;;;;5052328;28;20041;-60
2022/01/09 02:07:04;;;;;;;22.42;14.65;;;4.30;99.90;;;;;;5052299;28;20041;-60
2022/01/09 02:09:30;;;;;;;22.88;14.93;;;4.30;99.90;;;;;;5052288;28;20044;-60
2022/01/09 02:11:55;;;;;;;21.55;14.27;;;4.30;99.90;;;;;;5052223;28;20033;-60
2022/01/09 02:14:21;;;;;;;24.20;14.93;;;4.40;99.90;;;;;;5052248;28;20111;-60
2022/01/09 02:16:51;;;;;;;28.10;15.30;;;4.30;99.90;;;;;;5055559;28;20409;-61
2022/01/09 02:19:20;;;;;;;28.70;14.45;;;4.30;99.90;;;;;;5072386;28;20170;-61
2022/01/09 02:21:46;;;;;;;25.67;14.52;;;4.40;99.90;;;;;;5072124;28;20546;-61
2022/01/09 02:24:12;;;;;;;25.42;14.07;;;4.40;99.90;;;;;;5070909;28;20048;-62
2022/01/09 02:26:39;;;;;;;22.30;13.50;;;4.40;99.90;;;;;;5072053;28;20396;-63
2022/01/09 02:29:05;;;;;;;18.25;12.15;;;4.40;99.90;;;;;;5072092;28;20071;-63
2022/01/09 02:31:32;;;;;;;23.23;12.65;;;4.40;99.90;;;;;;5069928;28;20036;-62
2022/01/09 02:33:58;;;;;;;19.88;12.45;;;4.50;99.90;;;;;;5072305;28;20338;-61
2022/01/09 02:36:23;;;;;;;20.88;11.82;;;4.50;99.90;;;;;;5072057;28;20039;-62
2022/01/09 02:38:49;;;;;;;20.63;11.63;;;4.50;99.90;;;;;;5072066;28;20040;-63
2022/01/09 02:41:15;;;;;;;19.75;10.93;;;4.50;99.90;;;;;;5071923;28;20055;-62
2022/01/09 02:43:41;;;;;;;22.85;11.68;;;4.60;99.90;;;;;;5070652;28;20048;-62
2022/01/09 02:48:35;;;;;;;21.92;11.30;;;4.70;99.90;;;;;;5072006;28;20040;-61
2022/01/09 02:51:14;;;;;;;20.08;9.75;;;4.70;99.90;;;;;;5053774;28;20120;-61
2022/01/09 02:53:44;;;;;;;23.10;9.45;;;4.60;99.90;;;;;;5051880;28;20066;-61
2022/01/09 02:56:10;;;;;;;19.35;9.05;;;4.70;99.90;;;;;;5051728;28;20389;-61
2022/01/09 02:58:37;;;;;;;26.77;9.13;;;4.70;99.90;;;;;;5051677;28;20075;-61
2022/01/09 03:01:05;;;;;;;18.40;8.45;;;4.90;99.90;;;;;;5051696;28;20052;-60
2022/01/09 03:03:31;;;;;;;26.80;8.50;;;4.90;99.90;;;;;;5050704;28;20044;-60
2022/01/09 03:05:57;;;;;;;21.52;7.25;;;4.90;99.90;;;;;;5051629;28;20124;-60
2022/01/09 03:08:23;;;;;;;23.17;6.82;;;4.90;99.90;;;;;;5051529;28;20052;-60
2022/01/09 03:10:48;;;;;;;26.88;5.55;;;4.90;99.90;;;;;;5051568;28;20040;-60
2022/01/09 03:13:14;;;;;;;30.88;5.68;;;5.00;99.90;;;;;;5051528;28;20106;-60
2022/01/09 03:15:41;;;;;;;19.52;4.10;;;5.00;99.90;;;;;;5051525;28;20127;-53
2022/01/09 03:18:06;;;;;;;26.90;4.88;;;5.10;99.90;;;;;;5066031;28;20037;-52
2022/01/09 03:20:32;;;;;;;32.28;5.45;;;5.20;99.90;;;;;;5071833;28;20051;-60
2022/01/09 03:22:58;;;;;;;30.50;3.88;;;5.10;99.90;;;;;;5071494;28;20032;-52
2022/01/09 03:25:25;;;;;;;28.77;5.10;;;5.20;99.90;;;;;;5071500;28;20033;-48
2022/01/09 03:27:53;;;;;;;28.95;5.93;;;5.30;99.90;;;;;;5071684;28;20037;-47
2022/01/09 03:30:20;;;;;;;36.65;5.75;;;5.30;99.90;;;;;;5071511;28;20049;-47
2022/01/09 03:32:48;;;;;;;39.85;6.32;;;5.40;99.90;;;;;;5071527;28;20037;-47
2022/01/09 03:35:16;;;;;;;40.47;7.55;;;5.50;99.90;;;;;;5071558;28;20040;-50
2022/01/09 03:37:44;;;;;;;53.05;7.55;;;5.60;99.90;;;;;;5070154;28;20404;-59
2022/01/09 03:40:12;;;;;;;35.55;5.53;;;5.70;99.90;;;;;;5071379;28;20427;-48
2022/01/09 03:42:38;;;;;;;46.63;8.13;;;5.70;99.90;;;;;;5073786;28;20119;-60
2022/01/09 03:45:05;;;;;;;44.72;6.50;;;5.90;99.90;;;;;;5075206;28;20049;-47
2022/01/09 03:47:31;;;;;;;37.90;5.90;;;5.80;99.90;;;;;;5075045;28;20123;-47
2022/01/09 03:49:57;;;;;;;40.50;6.88;;;5.80;99.90;;;;;;5066263;28;20128;-59
2022/01/09 03:52:27;;;;;;;47.05;7.55;;;5.90;99.90;;;;;;5054737;28;20052;-51
2022/01/09 03:54:54;;;;;;;33.38;6.22;;;5.90;99.90;;;;;;5054697;28;20048;-59
2022/01/09 03:57:21;;;;;;;39.20;5.88;;;5.90;99.90;;;;;;5054819;28;20049;-47
2022/01/09 03:59:47;;;;;;;39.65;6.45;;;5.80;99.90;;;;;;5054746;28;20599;-46
2022/01/09 04:02:13;;;;;;;31.45;4.75;;;5.80;99.90;;;;;;5054657;28;20056;-60
2022/01/09 04:04:38;;;;;;;28.77;4.97;;;5.80;99.90;;;;;;5054835;28;20454;-47
2022/01/09 04:07:04;;;;;;;30.75;5.55;;;5.90;99.90;;;;;;5054511;28;20041;-50
2022/01/09 04:09:40;;;;;;;23.10;4.93;;;5.80;99.90;;;;;;5054523;28;20048;-50
2022/01/09 04:12:17;;;;;;;33.03;5.72;;;6.00;99.90;;;;;;5054610;28;20048;-59
2022/01/09 04:14:48;;;;;;;30.90;4.80;;;5.80;99.90;;;;;;5054432;28;20037;-48
2022/01/09 04:17:27;;;;;;;35.30;5.95;;;6.00;99.90;;;;;;5061683;28;20045;-59
2022/01/09 04:19:53;;;;;;;28.95;4.65;;;5.90;99.90;;;;;;5074353;28;20051;-59
2022/01/09 04:22:18;;;;;;;35.42;5.40;;;5.80;99.90;;;;;;5073285;28;20041;-59
2022/01/09 04:24:44;;;;;;;28.08;5.32;;;6.00;99.90;;;;;;5074250;28;20053;-58
2022/01/09 04:27:10;;;;;;;27.33;5.20;;;5.90;99.90;;;;;;5074210;28;20040;-48
2022/01/09 04:29:36;;;;;;;24.90;4.05;;;5.80;99.90;;;;;;5074094;28;20041;-59
2022/01/09 04:32:01;;;;;;;27.73;5.13;;;5.80;99.90;;;;;;5074070;28;20037;-46
2022/01/09 04:34:27;;;;;;;30.77;5.80;;;5.80;99.90;;;;;;5074173;28;20036;-58
2022/01/09 04:36:53;;;;;;;29.73;4.10;;;5.80;99.90;;;;;;5074045;28;20049;-47
2022/01/09 04:39:19;;;;;;;33.50;6.32;;;5.80;99.90;;;;;;5074038;28;20047;-58
2022/01/09 04:41:44;;;;;;;26.00;4.95;;;5.80;99.90;;;;;;5074037;28;20068;-59
2022/01/09 04:44:10;;;;;;;34.05;6.38;;;5.80;99.90;;;;;;5073968;28;20062;-59
2022/01/09 04:46:48;;;;;;;34.33;6.90;;;5.80;99.90;;;;;;5073813;28;20044;-59
2022/01/09 04:49:14;;;;;;;37.83;4.55;;;5.70;99.90;;;;;;5070952;28;20049;-59
2022/01/09 04:51:39;;;;;;;35.08;4.65;;;5.80;99.90;;;;;;5053874;28;20382;-47
2022/01/09 04:54:05;;;;;;;28.17;4.57;;;5.80;99.90;;;;;;5053037;28;20440;-59
2022/01/09 04:56:32;;;;;;;26.52;3.65;;;5.90;99.90;;;;;;5052682;28;20451;-58
2022/01/09 04:58:57;;;;;;;24.58;4.35;;;5.70;99.90;;;;;;5053669;28;20037;-47
2022/01/09 05:01:23;;;;;;;31.58;4.43;;;5.70;99.90;;;;;;5053643;28;20400;-47
2022/01/09 05:03:49;;;;;;;25.13;4.00;;;5.70;99.90;;;;;;5053716;28;20465;-46
2022/01/09 05:06:14;;;;;;;27.27;4.15;;;5.80;99.90;;;;;;5053662;28;20547;-59
2022/01/09 05:08:40;;;;;;;28.67;5.15;;;5.80;99.90;;;;;;5053509;28;20068;-58
2022/01/09 05:11:06;;;;;;;30.08;4.55;;;5.70;99.90;;;;;;5053434;28;20492;-59
2022/01/09 05:13:31;;;;;;;28.45;5.60;;;5.80;99.90;;;;;;5053383;28;20037;-46
2022/01/09 05:15:57;;;;;;;26.38;4.45;;;5.70;99.90;;;;;;5053075;28;20114;-59
2022/01/09 05:18:23;;;;;;;27.73;5.40;;;5.70;99.90;;;;;;5069100;28;20068;-58
2022/01/09 05:20:48;;;;;;;22.48;4.45;;;5.70;99.90;;;;;;5073332;28;20119;-59
2022/01/09 05:23:14;;;;;;;30.00;4.30;;;5.70;99.90;;;;;;5071817;28;20048;-46
2022/01/09 05:25:40;;;;;;;23.98;3.67;;;5.60;99.90;;;;;;5073152;28;20374;-58
2022/01/09 05:28:06;;;;;;;25.40;4.93;;;5.70;99.90;;;;;;5072976;28;20488;-59
2022/01/09 05:30:32;;;;;;;19.77;3.88;;;5.60;99.90;;;;;;5072840;28;20102;-59
2022/01/09 05:32:57;;;;;;;23.35;4.80;;;5.60;99.90;;;;;;5072824;28;20083;-59
2022/01/09 05:35:25;;;;;;;17.40;3.92;;;5.70;99.90;;;;;;5071595;28;20076;-58
2022/01/09 05:37:52;;;;;;;21.48;3.78;;;5.60;99.90;;;;;;5073005;28;20107;-58
2022/01/09 05:40:19;;;;;;;24.95;4.82;;;5.60;99.90;;;;;;5072901;28;20048;-59
2022/01/09 05:42:46;;;;;;;23.02;4.38;;;5.60;99.90;;;;;;5071355;28;20048;-46
2022/01/09 05:45:12;;;;;;;22.67;4.13;;;5.50;99.90;;;;;;5072641;28;20120;-48
2022/01/09 05:47:38;;;;;;;27.25;4.32;;;5.50;99.90;;;;;;5072883;28;20119;-47
2022/01/09 05:50:05;;;;;;;26.83;4.32;;;5.60;99.90;;;;;;5061360;28;20041;-59
2022/01/09 05:52:31;;;;;;;23.15;3.38;;;5.50;99.90;;;;;;5051525;28;20069;-59
2022/01/09 05:54:57;;;;;;;24.98;4.55;;;5.50;99.90;;;;;;5052745;28;20084;-59
2022/01/09 05:57:22;;;;;;;20.83;3.85;;;5.50;99.90;;;;;;5052549;28;20029;-58
2022/01/09 05:59:48;;;;;;;29.08;5.75;;;5.50;99.90;;;;;;5052412;28;20390;-59
2022/01/09 06:02:13;;;;;;;26.27;3.65;;;5.50;99.90;;;;;;5052363;28;20055;-59
2022/01/09 06:04:39;;;;;;;17.85;3.08;;;5.60;99.90;;;;;;5052336;28;20052;-59
2022/01/09 06:07:05;;;;;;;21.70;3.30;;;5.50;99.90;;;;;;5052492;28;20095;-47
2022/01/09 06:09:30;;;;;;;27.33;5.45;;;5.50;99.90;;;;;;5052327;28;20048;-47
2022/01/09 06:11:56;;;;;;;15.68;2.75;;;5.40;99.90;;;;;;5052222;28;20072;-45
2022/01/09 06:14:22;;;;;;;18.45;3.05;;;5.50;99.90;;;;;;5052169;28;20033;-50
2022/01/09 06:16:48;;;;;;;23.38;4.85;;;5.50;99.90;;;;;;5056468;28;20044;-49
2022/01/09 06:19:14;;;;;;;39.35;6.82;;;5.50;99.90;;;;;;5071093;28;20083;-47
2022/01/09 06:21:40;;;;;;;18.02;2.85;;;5.50;99.90;;;;;;5072414;28;20178;-48
2022/01/09 06:24:05;;;;;;;21.25;4.53;;;5.50;99.90;;;;;;5072077;28;20127;-47
2022/01/09 06:26:31;;;;;;;18.65;2.80;;;5.50;99.90;;;;;;5072140;28;20037;-47
2022/01/09 06:28:57;;;;;;;20.92;3.22;;;5.50;99.90;;;;;;5072091;28;20047;-59
2022/01/09 06:31:23;;;;;;;18.02;2.88;;;5.40;99.90;;;;;;5071975;28;20093;-59
2022/01/09 06:33:48;;;;;;;17.95;3.28;;;5.50;99.90;;;;;;5072234;28;20036;-59
2022/01/09 06:36:14;;;;;;;22.88;3.63;;;5.50;99.90;;;;;;5072096;28;20427;-59
2022/01/09 06:38:40;;;;;;;18.13;3.28;;;5.40;99.90;;;;;;5072028;28;20037;-59
2022/01/09 06:41:07;;;;;;;25.48;3.80;;;5.50;99.90;;;;;;5072028;28;20488;-59
2022/01/09 06:43:32;;;;;;;20.30;3.45;;;5.40;99.90;;;;;;5071898;28;20041;-59
2022/01/09 06:45:58;;;;;;;24.08;3.80;;;5.40;99.90;;;;;;5071796;28;20040;-58
2022/01/09 06:48:24;;;;;;;25.83;4.07;;;5.40;99.90;;;;;;5071869;28;20050;-59
2022/01/09 06:50:49;;;;;;;23.63;3.20;;;5.40;99.90;;;;;;5055388;28;20115;-59
2022/01/09 06:53:15;;;;;;;20.45;3.97;;;5.40;99.90;;;;;;5051825;28;20509;-59
2022/01/09 06:55:43;;;;;;;23.00;3.70;;;5.50;99.90;;;;;;5051840;28;20450;-59
2022/01/09 06:58:09;;;;;;;20.45;3.95;;;5.50;99.90;;;;;;5051822;28;20401;-47
2022/01/09 07:00:34;;;;;;;15.48;2.50;;;5.50;99.90;;;;;;5051990;28;20040;-46
2022/01/09 07:03:00;;;;;;;23.75;3.85;;;5.40;99.90;;;;;;5051876;28;20120;-47
2022/01/09 07:05:26;;;;;;;18.17;4.85;;;5.40;99.90;;;;;;5051770;28;20048;-46
2022/01/09 07:07:51;;;;;;;25.40;3.65;;;5.40;99.90;;;;;;5051789;28;20048;-49
2022/01/09 07:10:17;;;;;;;24.27;3.95;;;5.40;99.90;;;;;;5050550;28;20083;-47
2022/01/09 07:12:43;;;;;;;17.98;2.75;;;5.40;99.90;;;;;;5052175;28;20120;-47
2022/01/09 07:15:09;;;;;;;18.02;2.92;;;5.40;99.90;;;;;;5051787;28;20464;-48
2022/01/09 07:17:35;;;;;;;18.20;3.53;;;5.30;99.90;;;;;;5064700;28;20505;-46
2022/01/09 07:20:01;;;;;;;17.58;4.22;;;5.30;99.90;;;;;;5075403;28;20063;-48
2022/01/09 07:22:29;;;;;;;29.98;4.70;;;5.40;99.90;;;;;;5075470;28;20048;-47
2022/01/09 07:24:55;;;;;;;18.25;2.85;;;5.30;99.90;;;;;;5074213;28;20354;-47
2022/01/09 07:27:21;;;;;;;26.75;4.53;;;5.20;99.90;;;;;;5073902;28;20461;-60
2022/01/09 07:29:47;;;;;;;15.63;2.90;;;5.30;99.90;;;;;;5073860;28;20048;-61
2022/01/09 07:32:12;;;;;;;19.48;4.30;;;5.20;99.90;;;;;;5072623;28;20028;-60
2022/01/09 07:34:38;;;;;;;24.63;3.90;;;5.20;99.90;;;;;;5073787;28;20116;-59
2022/01/09 07:37:04;;;;;;;19.33;2.80;;;5.10;99.90;;;;;;5073752;28;20064;-60
2022/01/09 07:39:29;;;;;;;16.52;3.78;;;5.10;99.90;;;;;;5073654;28;20143;-49
2022/01/09 07:41:57;;;;;;;18.63;3.13;;;5.00;99.90;;;;;;5073595;28;20200;-50
2022/01/09 07:44:24;;;;;;;20.05;3.72;;;5.00;99.90;;;;;;5073606;28;20047;-49
2022/01/09 07:46:49;;;;;;;21.48;3.50;;;5.00;99.90;;;;;;5061213;28;20033;-60
2022/01/09 07:49:15;;;;;;;20.90;3.25;;;4.90;99.90;;;;;;5062456;28;20041;-60
2022/01/09 07:51:40;;;;;;;23.77;3.25;;;4.90;99.90;;;;;;5058332;28;20080;-60
2022/01/09 07:54:06;;;;;;;23.45;3.95;;;4.90;99.90;;;;;;5053369;28;20048;-60
2022/01/09 07:56:32;;;;;;;20.92;5.00;;;4.90;99.90;;;;;;5053249;28;20045;-60
2022/01/09 07:58:58;;;;;;;23.17;2.92;;;4.80;99.90;;;;;;5053504;28;20037;-60
2022/01/09 08:01:23;;;;;;;20.45;3.65;;;4.80;99.90;;;;;;5053006;28;20045;-58
2022/01/09 08:03:49;;;;;;;19.85;4.32;;;4.80;99.90;;;;;;5053278;28;20041;-59
2022/01/09 08:06:15;;;;;;;23.15;2.92;;;4.70;99.90;;;;;;5052078;28;20052;-59
2022/01/09 08:08:41;;;;;;;17.52;2.90;;;4.70;99.90;;;;;;5053128;28;20507;-59
2022/01/09 08:11:06;;;;;;;18.30;3.65;;;4.70;99.90;;;;;;5051735;28;20179;-59
2022/01/09 08:13:32;;;;;;;15.77;3.00;;;4.70;99.90;;;;;;5051702;28;20045;-48
2022/01/09 08:15:58;;;;;;;18.38;3.13;;;4.70;99.90;;;;;;5052980;28;20057;-49
2022/01/09 08:18:23;;;;;;;14.43;3.25;;;4.70;99.90;;;;;;5069061;28;20496;-48
2022/01/09 08:20:49;;;;;;;17.80;3.28;;;4.60;99.90;;;;;;5072884;28;20047;-48
2022/01/09 08:23:17;;;;;;;16.42;2.42;;;4.70;99.90;;;;;;5072808;28;20481;-50
2022/01/09 08:25:43;;;;;;;13.40;2.80;;;4.70;99.90;;;;;;5072655;28;20508;-58
2022/01/09 08:28:09;;;;;;;12.02;2.53;;;4.70;99.90;;;;;;5070350;28;20457;-59
2022/01/09 08:30:35;;;;;;;16.02;2.45;;;4.60;99.90;;;;;;5072730;28;20055;-59
2022/01/09 08:33:00;;;;;;;23.52;4.57;;;4.70;99.90;;;;;;5072762;28;20074;-59
2022/01/09 08:35:26;;;;;;;15.05;2.47;;;4.60;99.90;;;;;;5072593;28;20512;-59
2022/01/09 08:37:52;;;;;;;16.23;2.72;;;4.80;99.90;;;;;;5072502;28;20041;-49
2022/01/09 08:40:21;;;;;;;14.77;2.55;;;4.60;99.90;;;;;;5072326;28;20456;-59
2022/01/09 08:42:49;;;;;;;15.55;2.75;;;4.60;99.90;;;;;;5072468;28;20489;-59
2022/01/09 08:45:16;;;;;;;16.02;3.92;;;4.70;99.90;;;;;;5072456;28;20142;-59
2022/01/09 08:47:43;;;;;;;13.77;2.35;;;4.70;99.90;;;;;;5072183;28;20045;-59
2022/01/09 08:50:11;;;;;;;12.55;2.35;;;4.70;99.90;;;;;;5061459;28;20106;-48
2022/01/09 08:52:37;;;;;;;19.52;5.75;;;4.70;99.90;;;;;;5052247;28;20037;-59
2022/01/09 08:55:04;;;;;;;16.58;2.63;;;4.70;99.90;;;;;;5052447;28;20110;-59
2022/01/09 08:57:30;;;;;;;14.63;2.33;;;4.70;99.90;;;;;;5051852;28;20048;-59
2022/01/09 08:59:56;;;;;;;14.18;3.15;;;4.70;99.90;;;;;;5052071;28;20041;-59
2022/01/09 09:02:22;;;;;;;14.05;2.63;;;4.80;99.90;;;;;;5051892;28;20130;-59
2022/01/09 09:04:48;;;;;;;15.35;3.08;;;4.70;99.90;;;;;;5057275;28;20036;-49
2022/01/09 09:07:18;;;;;;;16.08;2.42;;;4.80;99.90;;;;;;5059225;28;20484;-48
2022/01/09 09:09:45;;;;;;;15.10;2.30;;;4.80;99.90;;;;;;5059909;28;20056;-49
2022/01/09 09:12:11;;;;;;;11.23;2.58;;;4.80;99.90;;;;;;5061832;28;20062;-50
2022/01/09 09:14:37;;;;;;;15.23;2.60;;;4.90;99.90;;;;;;5060126;28;20095;-48
2022/01/09 09:17:03;;;;;;;9.85;2.00;;;4.90;99.90;;;;;;5061658;28;20124;-46
2022/01/09 09:19:29;;;;;;;27.70;3.35;;;4.90;99.90;;;;;;5059381;28;20123;-47
2022/01/09 09:21:55;;;;;;;12.82;2.75;;;5.00;99.90;;;;;;5053850;28;20044;-49
2022/01/09 09:24:20;;;;;;;19.98;3.40;;;5.00;99.90;;;;;;5051130;28;20040;-59
2022/01/09 09:26:46;;;;;;;18.98;2.78;;;5.00;99.90;;;;;;5051505;28;20098;-59
2022/01/09 09:29:12;;;;;;;10.70;1.77;;;5.00;99.90;;;;;;5050466;28;20080;-48
2022/01/09 09:31:37;;;;;;;16.20;2.90;;;5.00;99.90;;;;;;5051484;28;20543;-46
2022/01/09 09:34:05;;;;;;;19.10;2.47;;;4.90;99.90;;;;;;5051385;28;20482;-59
2022/01/09 09:36:31;;;;;;;13.27;2.13;;;4.90;99.90;;;;;;5051407;28;20045;-59
2022/01/09 09:38:57;;;;;;;18.50;2.42;;;4.90;99.90;;;;;;5051454;28;20033;-59
2022/01/09 09:41:24;;;;;;;11.18;2.20;;;4.90;99.90;;;;;;5051217;28;20049;-52
2022/01/09 09:43:50;;;;;;;13.98;1.95;;;5.00;99.90;;;;;;5051463;28;20073;-59
2022/01/09 09:46:16;;;;;;;11.45;1.88;;;5.00;99.90;;;;;;5051219;28;20044;-59
2022/01/09 09:48:41;;;;;;;17.98;2.55;;;5.00;99.90;;;;;;5051363;28;20127;-47
2022/01/09 09:51:07;;;;;;;12.45;2.22;;;5.00;99.90;;;;;;5069777;28;20041;-47
2022/01/09 09:53:33;;;;;;;14.98;2.47;;;5.00;99.90;;;;;;5071159;28;20507;-50
2022/01/09 09:55:59;;;;;;;12.43;2.15;;;5.00;99.90;;;;;;5071182;28;20048;-48
2022/01/09 09:58:24;;;;;;;15.15;2.35;;;5.10;99.90;;;;;;5070876;28;20036;-59
2022/01/09 10:00:55;;;;;;;13.40;2.45;;;5.10;99.90;;;;;;5069723;28;20488;-59
2022/01/09 10:03:33;;;;;;;15.10;2.00;;;5.20;99.90;;;;;;5070905;28;20044;-46
2022/01/09 10:05:59;;;;;;;18.67;3.15;;;5.20;99.90;;;;;;5070886;28;20295;-59
2022/01/09 10:08:39;;;;;;;17.08;2.33;;;5.20;99.90;;;;;;5070978;28;20037;-52
2022/01/09 10:11:12;;;;;;;11.40;2.20;;;5.20;99.90;;;;;;5070796;28;20127;-58
2022/01/09 10:13:38;;;;;;;15.38;2.60;;;5.20;99.90;;;;;;5070727;28;20080;-59
2022/01/09 10:16:04;;;;;;;12.25;2.38;;;5.20;99.90;;;;;;5070553;28;20091;-47
2022/01/09 10:18:47;;;;;;;13.40;2.15;;;5.20;99.90;;;;;;5070808;28;20063;-46
2022/01/09 10:21:15;;;;;;;12.70;1.88;;;5.10;99.90;;;;;;5070746;28;20044;-47
2022/01/09 10:24:02;;;;;;;17.65;2.53;;;5.10;99.90;;;;;;5070799;28;20067;-48
2022/01/09 10:26:30;;;;;;;11.85;1.88;;;5.10;99.90;;;;;;5070555;28;20040;-47
2022/01/09 10:28:56;;;;;;;13.30;2.08;;;5.10;99.90;;;;;;5070841;28;20048;-47
2022/01/09 10:31:22;;;;;;;18.10;2.42;;;5.00;99.90;;;;;;5070525;28;20477;-59
2022/01/09 10:34:05;;;;;;;12.77;2.05;;;5.00;99.90;;;;;;5070876;28;20036;-50
2022/01/09 10:36:40;;;;;;;15.35;2.10;;;5.10;99.90;;;;;;5069440;28;20455;-47
2022/01/09 10:39:18;;;;;;;12.93;2.85;;;5.00;99.90;;;;;;5070761;28;20122;-49
2022/01/09 10:41:58;;;;;;;14.18;2.47;;;5.10;99.90;;;;;;5070365;28;20070;-60
2022/01/09 10:44:31;;;;;;;14.38;2.58;;;5.10;99.90;;;;;;5070586;28;20055;-60
2022/01/09 10:47:03;;;;;;;20.33;3.28;;;5.10;99.90;;;;;;5070375;28;20055;-60
2022/01/09 10:49:52;;;;;;;14.30;2.22;;;5.10;99.90;;;;;;5063988;28;20130;-60
2022/01/09 10:52:26;;;;;;;16.02;2.42;;;5.20;99.90;;;;;;5051870;28;20045;-50
2022/01/09 10:54:55;;;;;;;17.55;2.90;;;5.30;99.90;;;;;;5054031;28;20102;-60
2022/01/09 10:57:26;;;;;;;13.23;2.25;;;5.30;99.90;;;;;;5053124;28;20041;-47
2022/01/09 10:59:53;;;;;;;17.77;2.78;;;5.40;99.90;;;;;;5054435;28;20405;-47
2022/01/09 11:02:19;;;;;;;10.23;2.53;;;5.40;99.90;;;;;;5054282;28;20041;-50
2022/01/09 11:04:47;;;;;;;14.52;2.45;;;5.40;99.90;;;;;;5054384;28;20074;-49
2022/01/09 11:07:13;;;;;;;10.73;1.98;;;5.40;99.90;;;;;;5054385;28;20052;-47
2022/01/09 11:09:42;;;;;;;16.65;2.38;;;5.40;99.90;;;;;;5054068;28;20072;-48
2022/01/09 11:12:09;;;;;;;15.63;3.15;;;5.40;99.90;;;;;;5053109;28;20036;-60
2022/01/09 11:14:40;;;;;;;14.40;2.92;;;5.40;99.90;;;;;;5054076;28;20037;-50
2022/01/09 11:17:07;;;;;;;15.90;2.25;;;5.50;99.90;;;;;;5061911;28;20053;-60
2022/01/09 11:19:33;;;;;;;8.70;2.13;;;5.40;99.90;;;;;;5075684;28;20040;-47
2022/01/09 11:22:02;;;;;;;14.73;2.55;;;5.50;99.90;;;;;;5075657;28;20032;-50
2022/01/09 11:24:58;;;;;;;11.93;1.85;;;5.50;99.90;;;;;;5075457;28;20564;-60
2022/01/09 11:27:42;;;;;;;13.55;4.25;;;5.60;99.90;;;;;;5075648;28;20048;-59
2022/01/09 11:30:17;;;;;;;14.18;2.45;;;5.70;99.90;;;;;;5075329;28;20392;-47
2022/01/09 11:33:08;;;;;;;10.30;2.45;;;5.70;99.90;;;;;;5075379;28;20052;-51
2022/01/09 11:36:00;;;;;;;14.02;2.47;;;5.80;99.90;;;;;;5075458;28;20040;-60
2022/01/09 11:38:45;;;;;;;17.80;2.78;;;5.90;99.90;;;;;;5073938;28;20520;-49
2022/01/09 11:41:16;;;;;;;17.38;2.65;;;5.90;99.90;;;;;;5074711;28;20045;-48
2022/01/09 11:44:03;;;;;;;16.10;2.40;;;5.90;99.90;;;;;;5074471;28;20094;-60
2022/01/09 11:46:31;;;;;;;13.82;2.17;;;6.00;99.90;;;;;;5074793;28;20125;-47
2022/01/09 11:48:58;;;;;;;14.95;2.75;;;6.00;99.90;;;;;;5073711;28;20040;-48
2022/01/09 11:51:25;;;;;;;15.23;2.00;;;6.10;99.90;;;;;;5054465;28;20053;-60
2022/01/09 11:54:06;;;;;;;13.23;2.28;;;6.20;99.90;;;;;;5053402;28;20033;-50
2022/01/09 11:56:53;;;;;;;12.80;2.10;;;6.40;99.90;;;;;;5055067;28;20119;-60
2022/01/09 11:59:33;;;;;;;11.23;2.20;;;6.50;99.90;;;;;;5054991;28;20119;-59
2022/01/09 12:02:27;;;;;;;16.08;2.42;;;6.50;99.90;;;;;;5055163;28;20037;-49
2022/01/09 12:04:54;;;;;;;12.90;2.60;;;6.50;99.90;;;;;;5049550;28;20089;-60
2022/01/09 12:07:32;;;;;;;12.13;2.17;;;6.50;99.90;;;;;;5054721;28;20116;-51
2022/01/09 12:09:59;;;;;;;12.20;3.80;;;6.50;99.90;;;;;;5054559;28;20130;-49
2022/01/09 12:12:31;;;;;;;16.73;3.00;;;6.50;99.90;;;;;;5054083;28;20076;-51
2022/01/09 12:15:02;;;;;;;13.52;2.38;;;6.50;99.90;;;;;;5054197;28;20041;-50
2022/01/09 12:17:38;;;;;;;16.33;2.30;;;6.60;99.90;;;;;;5062546;28;20057;-49
2022/01/09 12:20:12;;;;;;;13.93;2.72;;;6.60;99.90;;;;;;5074356;28;20072;-60
2022/01/09 12:22:48;;;;;;;11.40;2.67;;;6.60;99.90;;;;;;5074276;28;20052;-49
2022/01/09 12:25:25;;;;;;;11.98;2.65;;;6.50;99.90;;;;;;5074817;28;20044;-48
2022/01/09 12:28:04;;;;;;;11.80;2.42;;;6.60;99.90;;;;;;5074511;28;20048;-48
2022/01/09 12:30:51;;;;;;;15.45;2.20;;;6.60;99.90;;;;;;5074261;28;20040;-59
2022/01/09 12:33:24;;;;;;;12.93;2.35;;;6.70;99.90;;;;;;5073952;28;20116;-47
2022/01/09 12:35:57;;;;;;;17.70;3.03;;;6.70;99.90;;;;;;5073934;28;20084;-59
2022/01/09 12:38:27;;;;;;;12.52;2.15;;;6.70;99.90;;;;;;5073811;28;20056;-59
2022/01/09 12:40:57;;;;;;;12.57;2.13;;;6.80;99.90;;;;;;5073795;28;20119;-59
2022/01/09 12:43:24;;;;;;;10.90;2.40;;;6.70;99.90;;;;;;5073722;28;20048;-60
2022/01/09 12:45:50;;;;;;;17.33;3.20;;;6.60;99.90;;;;;;5073805;28;20086;-59
2022/01/09 12:48:21;;;;;;;12.90;2.20;;;6.60;99.90;;;;;;5073843;28;20047;-59
2022/01/09 12:50:49;;;;;;;14.67;3.10;;;6.60;99.90;;;;;;5057474;28;20049;-60